createdAt,value
2022-11-19T00:01:15.840Z,58.13
2022-11-19T00:03:19.792Z,58.07
2022-11-19T00:05:24.371Z,57.92
2022-11-19T00:07:26.139Z,57.91
2022-11-19T00:09:27.718Z,57.99
2022-11-19T00:11:48.062Z,58.16
2022-11-19T00:13:49.925Z,57.91
2022-11-19T00:15:51.551Z,58.18
2022-11-19T00:17:53.153Z,57.88
2022-11-19T00:19:54.664Z,58.12
2022-11-19T00:21:56.418Z,58.01
2022-11-19T00:24:01.349Z,58.04
2022-11-19T00:26:11.316Z,57.83
2022-11-19T00:28:13.094Z,57.94
2022-11-19T00:30:40.740Z,57.74
2022-11-19T00:32:36.646Z,57.65
2022-11-19T00:34:38.108Z,57.83
2022-11-19T00:36:39.740Z,57.93
2022-11-19T00:38:41.919Z,57.73
2022-11-19T00:40:43.670Z,58.03
2022-11-19T00:43:05.261Z,57.52
2022-11-19T00:45:07.279Z,57.59
2022-11-19T00:47:08.880Z,57.79
2022-11-19T00:49:10.421Z,57.70
2022-11-19T00:51:14.994Z,57.84
2022-11-19T00:53:16.903Z,57.89
2022-11-19T00:55:20.770Z,57.74
2022-11-19T00:57:22.506Z,57.82
2022-11-19T00:59:24.280Z,57.92
2022-11-19T01:01:26.514Z,57.92
2022-11-19T01:03:28.229Z,57.96
2022-11-19T01:05:31.295Z,57.83
2022-11-19T01:07:32.966Z,58.05
2022-11-19T01:09:34.550Z,58.10
2022-11-19T01:11:37.496Z,58.04
2022-11-19T01:13:39.629Z,58.11
2022-11-19T01:15:41.242Z,58.19
2022-11-19T01:17:45.681Z,58.04
2022-11-19T01:19:47.193Z,58.00
2022-11-19T01:21:48.993Z,58.00
2022-11-19T01:23:51.540Z,57.82
2022-11-19T01:25:55.564Z,58.02
2022-11-19T01:27:58.453Z,57.99
2022-11-19T01:30:05.447Z,57.99
2022-11-19T01:32:07.070Z,58.09
2022-11-19T01:34:08.614Z,57.86
2022-11-19T01:36:25.058Z,57.80
2022-11-19T01:38:27.647Z,58.02
2022-11-19T01:40:29.259Z,58.01
2022-11-19T01:42:51.432Z,57.90
2022-11-19T01:45:06.649Z,57.78
2022-11-19T01:47:12.489Z,58.07
2022-11-19T01:49:20.453Z,57.94
2022-11-19T01:51:26.703Z,57.99
2022-11-19T01:53:35.315Z,57.92
2022-11-19T01:55:38.541Z,57.89
2022-11-19T01:57:40.973Z,58.00
2022-11-19T01:59:44.129Z,57.90
2022-11-19T02:01:46.063Z,58.10
2022-11-19T02:03:49.228Z,57.91
2022-11-19T02:05:53.824Z,57.84
2022-11-19T02:07:58.579Z,58.07
2022-11-19T02:10:02.697Z,57.98
2022-11-19T02:12:47.517Z,57.96
2022-11-19T02:14:58.823Z,58.10
2022-11-19T02:17:29.691Z,58.16
2022-11-19T02:19:59.083Z,58.09
2022-11-19T02:22:51.732Z,57.98
2022-11-19T02:24:55.750Z,57.85
2022-11-19T02:27:22.436Z,58.16
2022-11-19T02:29:29.927Z,58.15
2022-11-19T02:31:43.441Z,58.12
2022-11-19T02:34:09.026Z,58.08
2022-11-19T02:36:33.612Z,58.26
2022-11-19T02:38:44.642Z,58.26
2022-11-19T02:40:54.883Z,58.64
2022-11-19T02:43:05.536Z,58.44
2022-11-19T02:45:31.263Z,58.47
2022-11-19T02:47:41.019Z,58.36
2022-11-19T02:49:47.409Z,58.20
2022-11-19T02:51:50.181Z,58.33
2022-11-19T02:53:52.946Z,58.30
2022-11-19T02:56:13.312Z,58.53
2022-11-19T02:58:39.766Z,58.41
2022-11-19T03:01:08.901Z,58.56
2022-11-19T03:03:33.762Z,58.56
2022-11-19T03:05:39.204Z,58.57
2022-11-19T03:07:41.078Z,58.41
2022-11-19T03:09:49.545Z,58.52
2022-11-19T03:11:59.278Z,58.39
2022-11-19T03:14:33.212Z,58.46
2022-11-19T03:16:41.596Z,58.69
2022-11-19T03:18:50.891Z,58.53
2022-11-19T03:21:19.016Z,58.63
2022-11-19T03:23:29.606Z,58.45
2022-11-19T03:25:43.770Z,58.51
2022-11-19T03:27:53.636Z,58.65
2022-11-19T03:29:59.923Z,58.77
2022-11-19T03:32:10.165Z,58.82
2022-11-19T03:34:17.996Z,58.71
2022-11-19T03:36:50.933Z,58.67
2022-11-19T03:38:58.216Z,59.15
2022-11-19T03:41:03.276Z,58.81
2022-11-19T03:43:09.609Z,58.64
2022-11-19T03:45:19.760Z,58.58
2022-11-19T03:47:26.083Z,58.75
2022-11-19T03:49:31.842Z,58.97
2022-11-19T03:51:44.080Z,58.66
2022-11-19T03:53:45.882Z,58.60
2022-11-19T03:55:54.026Z,58.80
2022-11-19T03:58:02.101Z,58.29
2022-11-19T04:00:04.909Z,58.35
2022-11-19T04:02:14.626Z,58.51
2022-11-19T04:04:34.629Z,58.54
2022-11-19T04:06:36.424Z,58.46
2022-11-19T04:08:39.371Z,58.20
2022-11-19T04:10:41.069Z,58.24
2022-11-19T04:12:44.623Z,57.99
2022-11-19T04:14:46.636Z,58.28
2022-11-19T04:16:51.774Z,58.17
2022-11-19T04:18:53.502Z,58.32
2022-11-19T04:20:56.191Z,58.05
2022-11-19T04:22:57.770Z,58.20
2022-11-19T04:25:00.320Z,58.01
2022-11-19T04:27:02.604Z,58.05
2022-11-19T04:29:06.648Z,58.25
2022-11-19T04:31:12.359Z,58.07
2022-11-19T04:33:19.234Z,58.07
2022-11-19T04:35:23.726Z,58.23
2022-11-19T04:37:28.216Z,58.06
2022-11-19T04:39:29.857Z,57.89
2022-11-19T04:41:35.261Z,58.21
2022-11-19T04:43:36.903Z,58.26
2022-11-19T04:45:38.663Z,58.11
2022-11-19T04:47:43.415Z,58.23
2022-11-19T04:49:45.389Z,58.00
2022-11-19T04:51:50.118Z,57.95
2022-11-19T04:53:51.640Z,58.46
2022-11-19T04:55:55.539Z,58.27
2022-11-19T04:57:57.094Z,58.85
2022-11-19T04:59:58.708Z,58.32
2022-11-19T05:02:03.320Z,58.03
2022-11-19T05:04:05.053Z,58.23
2022-11-19T05:06:08.219Z,58.32
2022-11-19T05:08:09.991Z,58.13
2022-11-19T05:10:11.648Z,58.54
2022-11-19T05:12:13.227Z,58.08
2022-11-19T05:14:15.403Z,58.19
2022-11-19T05:16:17.156Z,58.18
2022-11-19T05:18:20.499Z,58.18
2022-11-19T05:20:26.405Z,58.49
2022-11-19T05:22:28.106Z,57.86
2022-11-19T05:24:32.554Z,58.39
2022-11-19T05:26:34.257Z,58.58
2022-11-19T05:28:39.876Z,58.76
2022-11-19T05:30:41.840Z,58.79
2022-11-19T05:32:45.969Z,58.35
2022-11-19T05:34:48.491Z,58.32
2022-11-19T05:36:56.085Z,58.25
2022-11-19T05:38:57.771Z,58.49
2022-11-19T05:40:59.498Z,58.00
2022-11-19T05:43:05.510Z,58.42
2022-11-19T05:45:07.797Z,58.70
2022-11-19T05:47:09.448Z,58.42
2022-11-19T05:49:13.758Z,58.48
2022-11-19T05:51:16.255Z,58.55
2022-11-19T05:53:18.323Z,58.72
2022-11-19T05:55:24.291Z,58.49
2022-11-19T05:57:25.868Z,58.65
2022-11-19T05:59:27.307Z,58.75
2022-11-19T06:01:32.014Z,58.63
2022-11-19T06:03:36.279Z,58.94
2022-11-19T06:05:40.526Z,58.58
2022-11-19T06:07:42.416Z,58.79
2022-11-19T06:09:44.099Z,58.50
2022-11-19T06:11:51.559Z,58.73
2022-11-19T06:13:57.337Z,59.00
2022-11-19T06:16:05.870Z,58.90
2022-11-19T06:18:11.032Z,58.79
2022-11-19T06:20:21.584Z,58.73
2022-11-19T06:22:26.131Z,58.73
2022-11-19T06:24:29.158Z,58.85
2022-11-19T06:26:30.900Z,58.85
2022-11-19T06:28:32.459Z,58.75
2022-11-19T06:30:35.683Z,59.12
2022-11-19T06:32:37.486Z,58.68
2022-11-19T06:34:39.129Z,58.60
2022-11-19T06:36:50.112Z,58.92
2022-11-19T06:38:54.626Z,59.00
2022-11-19T06:40:56.470Z,59.15
2022-11-19T06:42:58.393Z,58.97
2022-11-19T06:45:00.047Z,58.75
2022-11-19T06:47:04.971Z,59.08
2022-11-19T06:49:15.490Z,59.06
2022-11-19T06:51:20.334Z,58.90
2022-11-19T06:53:24.623Z,59.12
2022-11-19T06:55:27.552Z,59.07
2022-11-19T06:57:29.168Z,58.84
2022-11-19T06:59:32.006Z,59.00
2022-11-19T07:01:37.481Z,59.12
2022-11-19T07:03:39.140Z,59.01
2022-11-19T07:05:40.868Z,58.75
2022-11-19T07:07:42.506Z,59.05
2022-11-19T07:09:44.355Z,58.68
2022-11-19T07:11:48.860Z,58.52
2022-11-19T07:14:01.189Z,58.48
2022-11-19T07:16:04.702Z,58.65
2022-11-19T07:18:06.313Z,58.44
2022-11-19T07:20:08.585Z,58.57
2022-11-19T07:22:10.746Z,58.46
2022-11-19T07:24:17.656Z,58.86
2022-11-19T07:26:19.233Z,58.76
2022-11-19T07:28:20.962Z,58.79
2022-11-19T07:30:22.607Z,58.62
2022-11-19T07:32:24.499Z,58.40
2022-11-19T07:34:26.083Z,58.63
2022-11-19T07:36:27.823Z,58.62
2022-11-19T07:38:34.082Z,58.24
2022-11-19T07:40:38.316Z,58.49
2022-11-19T07:42:53.306Z,58.59
2022-11-19T07:44:56.672Z,58.74
2022-11-19T07:46:58.702Z,58.43
2022-11-19T07:49:00.307Z,58.98
2022-11-19T07:51:02.091Z,58.62
2022-11-19T07:53:04.051Z,58.59
2022-11-19T07:55:09.840Z,58.87
2022-11-19T07:57:12.061Z,58.15
2022-11-19T07:59:13.986Z,58.75
2022-11-19T08:01:20.034Z,58.79
2022-11-19T08:03:21.752Z,58.40
2022-11-19T08:05:23.276Z,58.49
2022-11-19T08:07:25.079Z,58.71
2022-11-19T08:09:26.791Z,58.50
2022-11-19T08:11:28.686Z,58.91
2022-11-19T08:13:30.622Z,58.79
2022-11-19T08:15:33.750Z,58.89
2022-11-19T08:17:55.080Z,58.83
2022-11-19T08:19:56.605Z,58.72
2022-11-19T08:21:58.323Z,58.72
2022-11-19T08:24:02.628Z,59.12
2022-11-19T08:26:06.905Z,58.63
2022-11-19T08:28:08.777Z,58.49
2022-11-19T08:30:10.662Z,58.71
2022-11-19T08:32:12.520Z,59.09
2022-11-19T08:34:15.461Z,58.88
2022-11-19T08:36:17.152Z,58.93
2022-11-19T08:38:19.148Z,58.92
2022-11-19T08:40:20.893Z,58.81
2022-11-19T08:42:40.873Z,59.26
2022-11-19T08:44:42.536Z,59.17
2022-11-19T08:46:44.876Z,59.11
2022-11-19T08:48:49.101Z,59.20
2022-11-19T08:50:50.668Z,59.02
2022-11-19T08:53:01.013Z,59.32
2022-11-19T08:55:06.156Z,59.51
2022-11-19T08:57:07.796Z,59.24
2022-11-19T08:59:09.868Z,58.81
2022-11-19T09:01:13.519Z,59.36
2022-11-19T09:03:22.499Z,59.17
2022-11-19T09:05:29.615Z,59.35
2022-11-19T09:07:31.458Z,58.78
2022-11-19T09:09:33.284Z,59.38
2022-11-19T09:11:42.375Z,59.39
2022-11-19T09:13:45.242Z,59.19
2022-11-19T09:15:51.716Z,59.51
2022-11-19T09:17:54.848Z,59.30
2022-11-19T09:19:56.575Z,59.03
2022-11-19T09:22:01.130Z,59.49
2022-11-19T09:24:03.124Z,59.18
2022-11-19T09:26:11.175Z,59.19
2022-11-19T09:28:12.807Z,59.72
2022-11-19T09:30:15.052Z,59.04
2022-11-19T09:32:25.497Z,59.65
2022-11-19T09:34:35.610Z,59.54
2022-11-19T09:36:40.532Z,59.08
2022-11-19T09:38:42.237Z,59.26
2022-11-19T09:40:54.548Z,59.27
2022-11-19T09:43:15.741Z,59.25
2022-11-19T09:45:28.153Z,59.53
2022-11-19T09:47:56.450Z,59.91
2022-11-19T09:50:17.040Z,59.51
2022-11-19T09:52:22.575Z,59.62
2022-11-19T09:54:24.834Z,59.15
2022-11-19T09:56:33.090Z,59.74
2022-11-19T09:58:45.358Z,59.38
2022-11-19T10:00:47.208Z,59.12
2022-11-19T10:02:49.405Z,59.59
2022-11-19T10:04:52.052Z,59.63
2022-11-19T10:07:36.897Z,59.87
2022-11-19T10:10:01.089Z,59.51
2022-11-19T10:12:08.817Z,59.38
2022-11-19T10:14:48.651Z,59.71
2022-11-19T10:17:16.318Z,59.37
2022-11-19T10:19:49.297Z,59.49
2022-11-19T10:21:59.755Z,59.73
2022-11-19T10:24:19.285Z,59.84
2022-11-19T10:26:32.561Z,60.26
2022-11-19T10:28:40.752Z,60.13
2022-11-19T10:30:49.272Z,60.11
2022-11-19T10:33:02.028Z,60.27
2022-11-19T10:35:30.626Z,60.01
2022-11-19T10:37:39.317Z,59.92
2022-11-19T10:39:47.892Z,60.10
2022-11-19T10:41:59.662Z,59.96
2022-11-19T10:44:39.966Z,59.82
2022-11-19T10:46:42.241Z,59.91
2022-11-19T10:48:47.975Z,60.25
2022-11-19T10:50:52.121Z,60.19
2022-11-19T10:53:02.711Z,59.92
2022-11-19T10:55:54.041Z,59.65
2022-11-19T10:58:09.639Z,60.20
2022-11-19T11:00:14.854Z,59.92
2022-11-19T11:02:31.466Z,60.00
2022-11-19T11:04:33.221Z,59.84
2022-11-19T11:06:54.201Z,59.92
2022-11-19T11:08:56.498Z,59.74
2022-11-19T11:10:59.360Z,59.94
2022-11-19T11:13:34.332Z,60.07
2022-11-19T11:15:36.401Z,59.89
2022-11-19T11:17:39.129Z,59.79
2022-11-19T11:19:40.909Z,59.84
2022-11-19T11:21:43.757Z,59.85
2022-11-19T11:23:53.606Z,59.69
2022-11-19T11:26:14.321Z,59.82
2022-11-19T11:28:18.660Z,59.43
2022-11-19T11:30:20.679Z,59.44
2022-11-19T11:32:32.649Z,59.72
2022-11-19T11:34:43.772Z,59.40
2022-11-19T11:36:46.260Z,59.71
2022-11-19T11:38:50.534Z,59.55
2022-11-19T11:42:04.386Z,59.70
2022-11-19T11:44:04.621Z,59.63
2022-11-19T11:46:13.116Z,59.48
2022-11-19T11:48:22.940Z,59.52
2022-11-19T11:50:30.761Z,59.65
2022-11-19T11:52:51.283Z,59.56
2022-11-19T11:55:06.866Z,59.59
2022-11-19T11:57:20.347Z,59.34
2022-11-19T11:59:25.620Z,59.37
2022-11-19T12:01:30.384Z,59.51
2022-11-19T12:03:34.366Z,59.28
2022-11-19T12:05:56.500Z,59.22
2022-11-19T12:08:16.109Z,59.05
2022-11-19T12:10:32.372Z,59.31
2022-11-19T12:12:45.546Z,58.93
2022-11-19T12:15:10.427Z,58.67
2022-11-19T12:17:50.527Z,59.01
2022-11-19T12:20:22.670Z,58.79
2022-11-19T12:22:33.576Z,58.74
2022-11-19T12:24:52.513Z,58.78
2022-11-19T12:27:29.241Z,58.60
2022-11-19T12:29:49.364Z,58.55
2022-11-19T12:32:23.272Z,58.43
2022-11-19T12:34:30.732Z,58.54
2022-11-19T12:36:46.072Z,58.48
2022-11-19T12:38:51.881Z,58.77
2022-11-19T12:41:05.365Z,58.66
2022-11-19T12:43:18.055Z,58.66
2022-11-19T12:45:19.946Z,58.71
2022-11-19T12:47:52.185Z,58.49
2022-11-19T12:50:11.193Z,58.68
2022-11-19T12:52:39.759Z,58.53
2022-11-19T12:54:52.407Z,58.71
2022-11-19T12:57:34.952Z,58.64
2022-11-19T13:00:11.372Z,58.80
2022-11-19T13:02:22.797Z,58.52
2022-11-19T13:04:39.143Z,58.75
2022-11-19T13:07:25.483Z,58.40
2022-11-19T13:09:46.277Z,58.78
2022-11-19T13:12:00.573Z,58.81
2022-11-19T13:14:36.320Z,58.55
2022-11-19T13:16:40.379Z,59.03
2022-11-19T13:19:06.506Z,58.73
2022-11-19T13:21:57.034Z,59.03
2022-11-19T13:24:08.213Z,59.00
2022-11-19T13:26:18.575Z,59.16
2022-11-19T13:28:38.615Z,59.00
2022-11-19T13:30:45.633Z,59.25
2022-11-19T13:33:02.800Z,59.06
2022-11-19T13:35:11.930Z,58.61
2022-11-19T13:37:44.136Z,58.78
2022-11-19T13:39:53.648Z,59.10
2022-11-19T13:42:15.775Z,58.86
2022-11-19T13:44:36.639Z,58.91
2022-11-19T13:46:59.214Z,59.08
2022-11-19T13:49:25.319Z,58.72
2022-11-19T13:51:45.604Z,59.36
2022-11-19T13:53:50.539Z,59.01
2022-11-19T13:56:00.298Z,59.20
2022-11-19T13:58:14.155Z,58.91
2022-11-19T14:00:26.691Z,59.02
2022-11-19T14:02:58.326Z,58.83
2022-11-19T14:05:06.265Z,59.22
2022-11-19T14:07:33.707Z,59.24
2022-11-19T14:09:36.818Z,59.23
2022-11-19T14:12:03.469Z,58.88
2022-11-19T14:14:48.620Z,59.22
2022-11-19T14:17:18.873Z,58.78
2022-11-19T14:19:39.134Z,58.90
2022-11-19T14:22:08.024Z,59.22
2022-11-19T14:24:43.763Z,58.91
2022-11-19T14:26:49.800Z,59.10
2022-11-19T14:28:59.587Z,58.77
2022-11-19T14:31:05.162Z,59.33
2022-11-19T14:33:46.624Z,58.74
2022-11-19T14:35:49.208Z,59.00
2022-11-19T14:37:56.890Z,58.92
2022-11-19T14:40:11.585Z,59.03
2022-11-19T14:42:16.597Z,59.27
2022-11-19T14:44:28.570Z,59.07
2022-11-19T14:46:32.788Z,58.98
2022-11-19T14:48:40.545Z,58.85
2022-11-19T14:51:17.772Z,58.89
2022-11-19T14:53:22.480Z,59.09
2022-11-19T14:55:29.132Z,59.17
2022-11-19T14:57:43.888Z,58.93
2022-11-19T14:59:49.906Z,59.41
2022-11-19T15:02:02.547Z,59.28
2022-11-19T15:04:10.828Z,59.05
2022-11-19T15:06:17.661Z,59.08
2022-11-19T15:08:19.330Z,58.92
2022-11-19T15:10:21.011Z,58.85
2022-11-19T15:12:34.624Z,59.17
2022-11-19T15:15:08.225Z,59.27
2022-11-19T15:17:10.807Z,59.01
2022-11-19T15:19:43.972Z,58.94
2022-11-19T15:22:13.461Z,59.29
2022-11-19T15:24:43.441Z,59.13
2022-11-19T15:27:17.290Z,58.92
2022-11-19T15:29:33.051Z,59.06
2022-11-19T15:31:52.937Z,59.14
2022-11-19T15:34:09.040Z,59.67
2022-11-19T15:36:39.203Z,59.19
2022-11-19T15:38:50.386Z,59.09
2022-11-19T15:40:55.938Z,59.38
2022-11-19T15:43:03.895Z,59.25
2022-11-19T15:45:12.325Z,59.00
2022-11-19T15:47:31.645Z,59.35
2022-11-19T15:49:37.696Z,59.47
2022-11-19T15:52:16.073Z,59.39
2022-11-19T15:54:19.427Z,59.08
2022-11-19T15:56:21.739Z,59.54
2022-11-19T15:58:31.529Z,59.25
2022-11-19T16:00:48.638Z,59.55
2022-11-19T16:02:52.778Z,59.23
2022-11-19T16:04:55.394Z,59.52
2022-11-19T16:07:04.379Z,59.91
2022-11-19T16:09:06.364Z,59.59
2022-11-19T16:11:26.902Z,59.54
2022-11-19T16:13:47.289Z,60.03
2022-11-19T16:16:12.508Z,59.54
2022-11-19T16:18:19.352Z,59.63
2022-11-19T16:20:22.262Z,59.57
2022-11-19T16:22:24.092Z,59.94
2022-11-19T16:24:46.010Z,59.29
2022-11-19T16:26:48.715Z,59.72
2022-11-19T16:28:50.715Z,59.59
2022-11-19T16:30:55.064Z,59.43
2022-11-19T16:32:59.189Z,59.83
2022-11-19T16:35:26.793Z,59.81
2022-11-19T16:37:28.703Z,59.84
2022-11-19T16:39:32.213Z,59.61
2022-11-19T16:41:55.104Z,59.76
2022-11-19T16:43:57.877Z,59.34
2022-11-19T16:46:00.773Z,59.24
2022-11-19T16:48:03.734Z,59.44
2022-11-19T16:50:35.857Z,59.50
2022-11-19T16:52:43.338Z,59.21
2022-11-19T16:54:51.106Z,59.25
2022-11-19T16:56:52.822Z,59.15
2022-11-19T16:59:01.706Z,59.48
2022-11-19T17:01:04.005Z,59.23
2022-11-19T17:03:21.095Z,59.30
2022-11-19T17:05:24.804Z,59.31
2022-11-19T17:07:27.949Z,60.00
2022-11-19T17:09:47.544Z,61.50
2022-11-19T17:12:10.128Z,60.63
2022-11-19T17:14:30.514Z,60.29
2022-11-19T17:16:34.146Z,59.97
2022-11-19T17:18:36.029Z,60.27
2022-11-19T17:20:39.763Z,59.90
2022-11-19T17:22:41.601Z,60.05
2022-11-19T17:24:45.819Z,60.09
2022-11-19T17:26:49.415Z,60.27
2022-11-19T17:28:54.886Z,60.16
2022-11-19T17:30:57.220Z,60.09
2022-11-19T17:33:04.702Z,60.22
2022-11-19T17:35:30.245Z,60.30
2022-11-19T17:37:37.728Z,60.38
2022-11-19T17:39:41.182Z,59.96
2022-11-19T17:42:01.856Z,60.28
2022-11-19T17:44:33.120Z,60.36
2022-11-19T17:46:34.715Z,59.93
2022-11-19T17:48:39.840Z,60.16
2022-11-19T17:50:41.456Z,59.83
2022-11-19T17:52:43.144Z,60.09
2022-11-19T17:54:47.566Z,59.68
2022-11-19T17:56:49.351Z,59.59
2022-11-19T17:58:51.463Z,59.50
2022-11-19T18:00:52.989Z,59.81
2022-11-19T18:02:58.969Z,59.77
2022-11-19T18:05:20.722Z,59.70
2022-11-19T18:07:22.416Z,59.19
2022-11-19T18:09:24.337Z,59.30
2022-11-19T18:11:35.659Z,59.25
2022-11-19T18:13:38.203Z,59.37
2022-11-19T18:15:40.693Z,58.85
2022-11-19T18:17:42.259Z,59.13
2022-11-19T18:19:43.925Z,58.87
2022-11-19T18:21:45.663Z,58.91
2022-11-19T18:23:55.303Z,58.87
2022-11-19T18:25:59.936Z,59.43
2022-11-19T18:28:01.793Z,59.19
2022-11-19T18:30:03.954Z,59.22
2022-11-19T18:32:05.769Z,59.29
2022-11-19T18:34:20.113Z,58.78
2022-11-19T18:36:22.747Z,59.14
2022-11-19T18:38:24.374Z,59.02
2022-11-19T18:40:26.015Z,59.08
2022-11-19T18:42:28.578Z,59.35
2022-11-19T18:44:37.679Z,59.18
2022-11-19T18:46:41.352Z,59.10
2022-11-19T18:48:43.452Z,59.03
2022-11-19T18:50:45.260Z,58.92
2022-11-19T18:52:47.617Z,59.19
2022-11-19T18:54:49.450Z,59.06
2022-11-19T18:56:51.574Z,58.84
2022-11-19T18:58:53.195Z,59.06
2022-11-19T19:00:55.024Z,58.86
2022-11-19T19:02:56.727Z,58.80
2022-11-19T19:05:01.526Z,58.69
2022-11-19T19:07:03.300Z,59.07
2022-11-19T19:09:05.411Z,58.91
2022-11-19T19:11:27.180Z,58.31
2022-11-19T19:13:28.890Z,58.58
2022-11-19T19:15:36.990Z,58.63
2022-11-19T19:17:38.953Z,58.41
2022-11-19T19:19:41.646Z,58.70
2022-11-19T19:21:43.508Z,58.67
2022-11-19T19:23:45.531Z,58.75
2022-11-19T19:25:47.225Z,58.75
2022-11-19T19:27:48.982Z,58.68
2022-11-19T19:29:50.873Z,58.52
2022-11-19T19:31:52.395Z,59.24
2022-11-19T19:33:54.065Z,58.68
2022-11-19T19:35:55.763Z,58.71
2022-11-19T19:37:57.418Z,58.96
2022-11-19T19:39:59.799Z,58.74
2022-11-19T19:42:06.120Z,58.75
2022-11-19T19:44:07.803Z,58.56
2022-11-19T19:46:18.359Z,58.83
2022-11-19T19:48:23.040Z,58.60
2022-11-19T19:50:24.841Z,58.69
2022-11-19T19:52:28.540Z,59.17
2022-11-19T19:54:31.209Z,58.54
2022-11-19T19:56:33.368Z,58.82
2022-11-19T19:58:35.062Z,59.24
2022-11-19T20:00:41.137Z,59.16
2022-11-19T20:02:45.626Z,59.16
2022-11-19T20:04:49.701Z,59.19
2022-11-19T20:06:54.322Z,58.80
2022-11-19T20:08:56.714Z,58.78
2022-11-19T20:11:07.255Z,59.01
2022-11-19T20:13:27.988Z,58.65
2022-11-19T20:15:33.638Z,58.57
2022-11-19T20:17:35.516Z,58.86
2022-11-19T20:19:40.249Z,58.78
2022-11-19T20:21:42.191Z,59.17
2022-11-19T20:23:44.353Z,58.92
2022-11-19T20:25:46.241Z,59.19
2022-11-19T20:27:47.903Z,59.01
2022-11-19T20:29:57.133Z,58.98
2022-11-19T20:31:59.843Z,59.01
2022-11-19T20:34:06.547Z,58.83
2022-11-19T20:36:15.796Z,59.25
2022-11-19T20:38:18.000Z,59.03
2022-11-19T20:40:19.866Z,58.70
2022-11-19T20:42:49.507Z,58.79
2022-11-19T20:44:51.303Z,59.05
2022-11-19T20:47:02.224Z,58.95
2022-11-19T20:49:03.957Z,59.14
2022-11-19T20:51:09.400Z,58.65
2022-11-19T20:53:11.085Z,58.74
2022-11-19T20:55:14.092Z,59.55
2022-11-19T20:57:19.775Z,58.73
2022-11-19T20:59:23.414Z,58.61
2022-11-19T21:01:29.855Z,58.69
2022-11-19T21:03:36.322Z,58.56
2022-11-19T21:05:38.132Z,58.72
2022-11-19T21:07:40.714Z,59.11
2022-11-19T21:09:42.625Z,58.72
2022-11-19T21:11:44.448Z,59.37
2022-11-19T21:13:46.179Z,58.93
2022-11-19T21:15:47.816Z,58.60
2022-11-19T21:17:52.512Z,58.80
2022-11-19T21:19:54.146Z,58.97
2022-11-19T21:21:55.752Z,59.01
2022-11-19T21:23:57.612Z,58.37
2022-11-19T21:26:03.811Z,59.26
2022-11-19T21:28:06.061Z,59.27
2022-11-19T21:30:08.416Z,59.01
2022-11-19T21:32:10.146Z,59.25
2022-11-19T21:34:17.772Z,58.89
2022-11-19T21:36:22.409Z,59.28
2022-11-19T21:38:29.513Z,59.03
2022-11-19T21:40:31.321Z,59.16
2022-11-19T21:42:34.200Z,58.86
2022-11-19T21:44:35.724Z,59.31
2022-11-19T21:46:37.669Z,58.92
2022-11-19T21:48:39.450Z,58.97
2022-11-19T21:50:41.327Z,59.00
2022-11-19T21:52:43.073Z,59.06
2022-11-19T21:54:45.006Z,58.92
2022-11-19T21:56:52.047Z,58.47
2022-11-19T21:59:25.567Z,58.72
2022-11-19T22:01:28.110Z,58.99
2022-11-19T22:03:33.444Z,58.65
2022-11-19T22:05:35.302Z,58.81
2022-11-19T22:07:37.397Z,58.93
2022-11-19T22:09:42.245Z,58.52
2022-11-19T22:11:45.001Z,58.80
2022-11-19T22:13:46.651Z,58.62
2022-11-19T22:15:48.429Z,58.66
2022-11-19T22:17:50.139Z,58.41
2022-11-19T22:19:53.146Z,58.51
2022-11-19T22:21:54.628Z,58.99
2022-11-19T22:23:56.475Z,58.36
2022-11-19T22:26:04.795Z,58.89
2022-11-19T22:28:09.272Z,59.20
2022-11-19T22:30:11.766Z,58.79
2022-11-19T22:32:13.613Z,58.75
2022-11-19T22:34:23.862Z,58.89
2022-11-19T22:36:26.391Z,59.02
2022-11-19T22:38:40.020Z,58.89
2022-11-19T22:40:41.829Z,59.38
2022-11-19T22:42:43.330Z,58.93
2022-11-19T22:44:45.290Z,58.98
2022-11-19T22:46:48.419Z,58.98
2022-11-19T22:48:53.228Z,59.24
2022-11-19T22:50:54.921Z,59.44
2022-11-19T22:52:56.736Z,59.45
2022-11-19T22:54:58.628Z,58.86
2022-11-19T22:57:00.513Z,58.97
2022-11-19T22:59:04.835Z,58.63
2022-11-19T23:01:27.112Z,59.03
2022-11-19T23:03:31.090Z,58.62
2022-11-19T23:05:37.232Z,58.83
2022-11-19T23:07:39.156Z,58.81
2022-11-19T23:09:41.714Z,58.99
2022-11-19T23:12:04.155Z,59.11
2022-11-19T23:14:10.833Z,59.10
2022-11-19T23:16:21.289Z,58.86
2022-11-19T23:18:25.811Z,59.18
2022-11-19T23:20:27.408Z,58.65
2022-11-19T23:22:31.772Z,58.91
2022-11-19T23:24:33.529Z,59.07
2022-11-19T23:26:39.326Z,59.16
2022-11-19T23:28:41.172Z,58.60
2022-11-19T23:30:42.906Z,58.78
2022-11-19T23:32:46.724Z,59.00
2022-11-19T23:34:49.316Z,58.72
2022-11-19T23:36:50.881Z,59.17
2022-11-19T23:39:08.286Z,59.11
2022-11-19T23:41:12.386Z,59.36
2022-11-19T23:43:14.647Z,59.28
2022-11-19T23:45:18.829Z,58.62
2022-11-19T23:47:23.372Z,58.94
2022-11-19T23:49:27.714Z,58.69
2022-11-19T23:51:31.599Z,58.67
2022-11-19T23:53:33.857Z,59.10
2022-11-19T23:55:35.566Z,58.68
2022-11-19T23:57:37.295Z,59.11
2022-11-19T23:59:39.794Z,58.40
